sensor_id;sensor_type;location;lat;lon;timestamp;pressure;altitude;pressure_sealevel;temperature;humidity
60976;BME280;46849;48.154;17.042;2023-03-25T16:19:49;98004.97;;;24.26;39.33
60976;BME280;46849;48.154;17.042;2023-03-25T16:23:37;98001.25;;;23.60;39.92
60976;BME280;46849;48.154;17.042;2023-03-25T16:26:34;97996.13;;;23.05;39.08
60976;BME280;46849;48.154;17.042;2023-03-25T16:29:22;98008.03;;;22.88;40.43
60976;BME280;46849;48.154;17.042;2023-03-25T16:32:17;98015.03;;;22.83;39.90
60976;BME280;46849;48.154;17.042;2023-03-25T16:35:02;98007.22;;;22.81;40.48
60976;BME280;46849;48.154;17.042;2023-03-25T16:37:49;98007.44;;;22.80;39.98
60976;BME280;46849;48.154;17.042;2023-03-25T16:40:38;98019.75;;;22.81;41.43
60976;BME280;46849;48.154;17.042;2023-03-25T16:43:30;98017.50;;;22.98;40.45
60976;BME280;46849;48.154;17.042;2023-03-25T16:46:15;98024.91;;;22.96;41.26
60976;BME280;46849;48.154;17.042;2023-03-25T16:49:02;98022.22;;;22.82;39.55
60976;BME280;46849;48.154;17.042;2023-03-25T16:51:49;98024.25;;;22.67;39.55
60976;BME280;46849;48.154;17.042;2023-03-25T16:57:41;98028.06;;;22.57;39.93
60976;BME280;46849;48.154;17.042;2023-03-25T17:00:36;98037.13;;;22.56;40.10
60976;BME280;46849;48.154;17.042;2023-03-25T17:06:58;98045.06;;;22.43;38.86
60976;BME280;46849;48.154;17.042;2023-03-25T17:09:48;98050.19;;;22.44;39.16
60976;BME280;46849;48.154;17.042;2023-03-25T17:15:19;98058.84;;;22.46;39.11
60976;BME280;46849;48.154;17.042;2023-03-25T17:18:12;98073.63;;;22.42;39.37
60976;BME280;46849;48.154;17.042;2023-03-25T17:20:58;98068.00;;;22.30;38.55
60976;BME280;46849;48.154;17.042;2023-03-25T17:23:46;98091.19;;;22.30;38.31
60976;BME280;46849;48.154;17.042;2023-03-25T17:26:53;98111.75;;;22.00;37.72
60976;BME280;46849;48.154;17.042;2023-03-25T17:29:54;98133.09;;;20.91;37.86
60976;BME280;46849;48.154;17.042;2023-03-25T17:32:40;98150.31;;;20.58;36.69
60976;BME280;46849;48.154;17.042;2023-03-25T17:35:29;98156.81;;;19.56;38.60
60976;BME280;46849;48.154;17.042;2023-03-25T17:38:27;98163.25;;;20.16;39.03
60976;BME280;46849;48.154;17.042;2023-03-25T17:41:17;98176.31;;;20.41;38.08
60976;BME280;46849;48.154;17.042;2023-03-25T17:44:02;98188.03;;;20.47;38.37
60976;BME280;46849;48.154;17.042;2023-03-25T17:46:46;98202.16;;;20.62;38.21
60976;BME280;46849;48.154;17.042;2023-03-25T17:49:31;98218.41;;;20.37;38.32
60976;BME280;46849;48.154;17.042;2023-03-25T17:52:17;98232.97;;;20.56;38.00
60976;BME280;46849;48.154;17.042;2023-03-25T17:55:03;98226.94;;;20.63;38.06
60976;BME280;46849;48.154;17.042;2023-03-25T17:57:48;98219.69;;;20.56;38.21
60976;BME280;46849;48.154;17.042;2023-03-25T18:00:33;98229.03;;;20.37;38.66
60976;BME280;46849;48.154;17.042;2023-03-25T18:03:21;98239.06;;;20.65;39.17
60976;BME280;46849;48.154;17.042;2023-03-25T18:06:06;98231.38;;;21.23;38.60
60976;BME280;46849;48.154;17.042;2023-03-25T18:08:51;98221.91;;;21.57;38.45
60976;BME280;46849;48.154;17.042;2023-03-25T18:11:36;98202.31;;;21.87;38.36
60976;BME280;46849;48.154;17.042;2023-03-25T18:14:22;98203.28;;;22.08;38.88
60976;BME280;46849;48.154;17.042;2023-03-25T18:17:10;98210.81;;;22.26;39.37
60976;BME280;46849;48.154;17.042;2023-03-25T18:19:56;98198.44;;;22.54;38.98
60976;BME280;46849;48.154;17.042;2023-03-25T18:48:21;98222.38;;;22.75;40.80
60976;BME280;46849;48.154;17.042;2023-03-25T18:51:11;98225.06;;;22.75;40.13
60976;BME280;46849;48.154;17.042;2023-03-25T18:53:56;98233.91;;;22.76;40.20
60976;BME280;46849;48.154;17.042;2023-03-25T18:56:41;98230.00;;;22.79;40.24
